Time;durP1;ratioP1;P1;durP2;ratioP2;P2;SDS_P1;SDS_P2;PMS_P1;PMS_P2;Temp;Humidity;BMP_temperature;BMP_pressure;BME280_temperature;BME280_humidity;BME280_pressure;Samples;Min_cycle;Max_cycle;Signal;HPM_P1;HPM_P2
2021/11/01 00:01:47;;;;;;;13.90;2.97;;;10.00;99.90;;;;;;5073969;28;20098;-93
2021/11/01 00:04:20;;;;;;;16.77;4.28;;;9.90;99.90;;;;;;5076651;28;20167;-93
2021/11/01 00:06:59;;;;;;;16.45;3.55;;;10.00;99.90;;;;;;5077494;28;20028;-94
2021/11/01 00:09:56;;;;;;;13.13;3.00;;;9.90;99.90;;;;;;5059257;28;20040;-94
2021/11/01 00:12:47;;;;;;;15.85;3.78;;;9.90;99.90;;;;;;5059997;28;20037;-94
2021/11/01 00:15:46;;;;;;;;;;;;;;;;;;;;;
2021/11/01 00:18:22;;;;;;;14.60;3.08;;;9.80;99.90;;;;;;5076944;28;20040;-94
2021/11/01 00:20:49;;;;;;;14.57;3.47;;;9.80;99.90;;;;;;5060514;28;20044;-94
2021/11/01 00:23:21;;;;;;;14.32;3.20;;;9.80;99.90;;;;;;5076073;28;20032;-94
2021/11/01 00:26:00;;;;;;;18.70;3.85;;;9.80;99.90;;;;;;5059402;28;20123;-93
2021/11/01 00:28:42;;;;;;;11.82;3.47;;;9.80;99.90;;;;;;5076106;28;20024;-94
2021/11/01 00:31:21;;;;;;;15.25;4.00;;;9.80;99.90;;;;;;5076885;28;20434;-93
2021/11/01 00:33:52;;;;;;;17.42;4.68;;;9.80;99.90;;;;;;5075823;28;20032;-95
2021/11/01 00:36:22;;;;;;;11.32;3.17;;;9.80;99.90;;;;;;5075890;28;20032;-96
2021/11/01 00:39:13;;;;;;;12.80;3.95;;;9.80;99.90;;;;;;5058802;28;20033;-95
2021/11/01 00:41:50;;;;;;;18.33;3.83;;;9.70;99.90;;;;;;5076260;28;20036;-93
2021/11/01 00:44:20;;;;;;;19.20;4.70;;;9.70;99.90;;;;;;5074535;28;20028;-93
2021/11/01 00:47:12;;;;;;;12.93;3.40;;;9.70;99.90;;;;;;5075654;28;20485;-95
2021/11/01 00:49:47;;;;;;;14.90;5.15;;;9.70;99.90;;;;;;5074245;28;20035;-94
2021/11/01 00:52:25;;;;;;;13.25;3.60;;;9.70;99.90;;;;;;5074876;28;20072;-93
2021/11/01 00:55:25;;;;;;;14.05;3.20;;;9.60;99.90;;;;;;5075475;28;20033;-95
2021/11/01 00:57:54;;;;;;;17.63;3.13;;;9.60;99.90;;;;;;5075624;28;20036;-95
2021/11/01 01:00:29;;;;;;;13.48;2.75;;;9.60;99.90;;;;;;5058590;28;20070;-95
2021/11/01 01:02:59;;;;;;;16.27;3.63;;;9.60;99.90;;;;;;5059490;28;20127;-95
2021/11/01 01:05:29;;;;;;;18.40;4.15;;;9.60;99.90;;;;;;5076614;28;20038;-96
2021/11/01 01:08:00;;;;;;;14.65;3.80;;;9.60;99.90;;;;;;5058448;28;20039;-94
2021/11/01 01:10:46;;;;;;;10.10;3.03;;;9.60;99.90;;;;;;5075435;28;20119;-95
2021/11/01 01:13:19;;;;;;;12.23;3.17;;;9.60;99.90;;;;;;5076797;28;20427;-95
2021/11/01 01:16:30;;;;;;;13.67;3.13;;;9.50;99.90;;;;;;5076023;28;20137;-95
2021/11/01 01:19:22;;;;;;;15.80;4.20;;;9.50;99.90;;;;;;5074877;28;20021;-95
2021/11/01 01:24:39;;;;;;;16.85;3.30;;;9.50;99.90;;;;;;5075521;28;20063;-94
2021/11/01 01:27:29;;;;;;;13.45;2.70;;;9.50;99.90;;;;;;5074671;28;20419;-94
2021/11/01 01:29:55;;;;;;;11.18;2.78;;;9.50;99.90;;;;;;5074098;28;20027;-93
2021/11/01 01:32:48;;;;;;;11.25;2.25;;;9.40;99.90;;;;;;5058943;28;20151;-95
2021/11/01 01:35:37;;;;;;;13.00;2.50;;;9.40;99.90;;;;;;5075093;28;20058;-95
2021/11/01 01:38:04;;;;;;;12.32;2.55;;;9.40;99.90;;;;;;5074577;28;20028;-95
2021/11/01 01:40:37;;;;;;;12.57;2.75;;;9.40;99.90;;;;;;5074369;28;20032;-93
2021/11/01 01:43:26;;;;;;;8.95;2.58;;;9.40;99.90;;;;;;5073641;28;20123;-96
2021/11/01 01:46:03;;;;;;;10.93;2.42;;;9.40;99.90;;;;;;5058093;28;20098;-94
2021/11/01 01:48:33;;;;;;;7.13;1.88;;;9.40;99.90;;;;;;5074745;28;20047;-95
2021/11/01 01:51:25;;;;;;;7.63;2.00;;;9.40;99.90;;;;;;5041288;28;20043;-95
2021/11/01 01:53:56;;;;;;;10.35;2.40;;;9.40;99.90;;;;;;5074028;28;20063;-93
2021/11/01 01:56:41;;;;;;;11.23;2.33;;;9.30;99.90;;;;;;5074248;28;20025;-94
2021/11/01 01:59:35;;;;;;;7.90;1.70;;;9.30;99.90;;;;;;5073768;28;20077;-94
2021/11/01 02:02:04;;;;;;;10.20;2.42;;;9.30;99.90;;;;;;5069503;28;20052;-94
2021/11/01 02:04:35;;;;;;;9.20;2.65;;;9.30;99.90;;;;;;5073639;28;20499;-95
2021/11/01 02:07:30;;;;;;;9.70;2.40;;;9.30;99.90;;;;;;5073415;28;20063;-94
2021/11/01 02:10:20;;;;;;;11.43;2.40;;;9.30;99.90;;;;;;5074740;28;20055;-94
2021/11/01 02:13:05;;;;;;;7.05;1.63;;;9.30;99.90;;;;;;5056186;28;20024;-95
2021/11/01 02:16:14;;;;;;;10.10;1.95;;;9.30;99.90;;;;;;5073679;28;20115;-93
2021/11/01 02:18:53;;;;;;;9.40;1.77;;;9.20;99.90;;;;;;5033615;28;20039;-94
2021/11/01 02:21:55;;;;;;;12.02;2.58;;;9.20;99.90;;;;;;5073969;28;20040;-94
2021/11/01 02:24:59;;;;;;;14.65;2.35;;;9.20;99.90;;;;;;5073759;28;20035;-94
2021/11/01 02:27:43;;;;;;;11.95;2.38;;;9.30;99.90;;;;;;5074698;28;20025;-93
2021/11/01 02:30:15;;;;;;;16.60;3.20;;;9.20;99.90;;;;;;5058027;28;20041;-94
2021/11/01 02:32:46;;;;;;;9.60;1.85;;;9.30;99.90;;;;;;5073360;28;20078;-94
2021/11/01 02:35:21;;;;;;;12.00;2.15;;;9.30;99.90;;;;;;5040463;28;20047;-95
2021/11/01 02:38:02;;;;;;;15.15;2.90;;;9.30;99.90;;;;;;5074554;28;20056;-94
2021/11/01 02:40:31;;;;;;;12.55;2.80;;;9.30;99.90;;;;;;5073308;28;20037;-93
2021/11/01 02:43:01;;;;;;;8.07;1.73;;;9.30;99.90;;;;;;5073648;28;20035;-94
2021/11/01 02:45:35;;;;;;;14.18;2.53;;;9.20;99.90;;;;;;5073151;28;20469;-94
2021/11/01 02:48:08;;;;;;;13.35;2.17;;;9.30;99.90;;;;;;5056686;28;20040;-93
2021/11/01 02:50:35;;;;;;;;;;;9.20;99.90;;;;;;5074019;28;20021;-94
2021/11/01 02:53:02;;;;;;;9.77;2.10;;;9.20;99.90;;;;;;5076304;28;19916;-93
2021/11/01 02:55:31;;;;;;;9.93;2.00;;;9.20;99.90;;;;;;5074665;28;20127;-95
2021/11/01 02:58:21;;;;;;;9.52;1.88;;;9.20;99.90;;;;;;5073499;28;20082;-94
2021/11/01 03:00:52;;;;;;;8.77;2.08;;;9.20;99.90;;;;;;5073433;28;20024;-94
2021/11/01 03:03:20;;;;;;;8.23;1.90;;;9.20;99.90;;;;;;5073520;28;20037;-93
2021/11/01 03:05:50;;;;;;;9.45;2.20;;;9.10;99.90;;;;;;5056025;28;20037;-93
2021/11/01 03:08:27;;;;;;;11.77;2.10;;;9.10;99.90;;;;;;5076626;28;20029;-93
2021/11/01 03:11:02;;;;;;;7.97;1.95;;;9.20;99.90;;;;;;5078454;28;20024;-92
2021/11/01 03:13:32;;;;;;;9.85;1.90;;;9.20;99.90;;;;;;5076804;28;20456;-93
2021/11/01 03:16:09;;;;;;;8.20;2.17;;;9.10;99.90;;;;;;5076805;28;20070;-94
2021/11/01 03:18:51;;;;;;;11.93;2.33;;;9.10;99.90;;;;;;5060713;28;20036;-94
2021/11/01 03:21:21;;;;;;;9.77;2.10;;;9.10;99.90;;;;;;5073524;28;20036;-93
2021/11/01 03:23:50;;;;;;;8.02;2.00;;;9.10;99.90;;;;;;5061053;28;20368;-92
2021/11/01 03:26:22;;;;;;;10.57;1.85;;;9.10;99.90;;;;;;5076794;28;20081;-94
2021/11/01 03:28:51;;;;;;;8.38;2.25;;;9.10;99.90;;;;;;5076461;28;20024;-95
2021/11/01 03:31:21;;;;;;;7.50;1.85;;;9.10;99.90;;;;;;5076751;28;20028;-94
2021/11/01 03:33:53;;;;;;;10.05;2.63;;;9.10;99.90;;;;;;5076303;28;20033;-94
2021/11/01 03:36:21;;;;;;;10.55;2.00;;;9.10;99.90;;;;;;5075263;28;20396;-95
2021/11/01 03:38:51;;;;;;;8.95;2.20;;;9.10;99.90;;;;;;5075047;28;20025;-95
2021/11/01 03:41:26;;;;;;;7.75;1.77;;;9.10;99.90;;;;;;5071706;28;20025;-95
2021/11/01 03:44:06;;;;;;;8.30;1.65;;;9.10;99.90;;;;;;5076226;28;20032;-94
2021/11/01 03:46:42;;;;;;;8.90;1.77;;;9.10;99.90;;;;;;5076105;28;20082;-94
2021/11/01 03:49:12;;;;;;;10.40;2.05;;;9.10;99.90;;;;;;5058483;28;20039;-94
2021/11/01 03:54:16;;;;;;;6.40;1.70;;;9.00;99.90;;;;;;5077036;28;20033;-93
2021/11/01 03:56:43;;;;;;;6.25;1.52;;;9.00;99.90;;;;;;5059009;28;20072;-94
2021/11/01 03:59:14;;;;;;;8.48;1.80;;;8.90;99.90;;;;;;5059603;28;20092;-95
2021/11/01 04:01:46;;;;;;;6.32;2.03;;;8.90;99.90;;;;;;5076958;28;20021;-94
2021/11/01 04:04:16;;;;;;;5.95;1.80;;;8.90;99.90;;;;;;5042770;28;20468;-95
2021/11/01 04:06:47;;;;;;;6.63;1.85;;;8.90;99.90;;;;;;5042843;28;20025;-94
2021/11/01 04:09:15;;;;;;;8.40;1.60;;;8.90;99.90;;;;;;5059193;28;20029;-95
2021/11/01 04:11:48;;;;;;;13.32;2.08;;;8.90;99.90;;;;;;5042808;28;20150;-95
2021/11/01 04:14:21;;;;;;;8.23;2.10;;;8.90;99.90;;;;;;5060596;28;20059;-94
2021/11/01 04:16:52;;;;;;;6.75;1.52;;;8.90;99.90;;;;;;5044259;28;20021;-93
2021/11/01 04:19:31;;;;;;;7.35;2.10;;;8.90;99.90;;;;;;5075922;28;20029;-94
2021/11/01 04:21:58;;;;;;;8.60;2.25;;;8.90;99.90;;;;;;5029704;28;20123;-94
2021/11/01 04:24:29;;;;;;;15.65;2.10;;;8.90;99.90;;;;;;5042657;28;20020;-94
2021/11/01 04:27:02;;;;;;;12.70;3.55;;;8.90;99.90;;;;;;5076804;28;20425;-95
2021/11/01 04:29:32;;;;;;;8.43;1.88;;;9.00;99.90;;;;;;5076884;28;20023;-95
2021/11/01 04:32:12;;;;;;;10.77;1.88;;;9.00;99.90;;;;;;5043546;28;20051;-92
2021/11/01 04:34:41;;;;;;;15.50;2.70;;;9.00;99.90;;;;;;5060646;28;20460;-94
2021/11/01 04:37:12;;;;;;;9.25;2.50;;;9.10;99.90;;;;;;5042931;28;20028;-94
2021/11/01 04:53:27;;;;;;;10.52;2.30;;;9.00;99.90;;;;;;5076296;28;20067;-94
2021/11/01 04:56:02;;;;;;;11.40;2.78;;;9.00;99.90;;;;;;5059565;28;20111;-94
2021/11/01 04:58:32;;;;;;;13.27;2.60;;;9.00;99.90;;;;;;5075594;28;20048;-95
2021/11/01 05:00:59;;;;;;;8.23;2.03;;;9.10;99.90;;;;;;5041989;28;20178;-95
2021/11/01 05:05:52;;;;;;;10.88;2.20;;;9.10;99.90;;;;;;5075506;28;20060;-94
2021/11/01 05:08:23;;;;;;;12.07;2.72;;;9.10;99.90;;;;;;5057797;28;20021;-96
2021/11/01 05:10:52;;;;;;;8.38;1.92;;;9.00;99.90;;;;;;5026150;28;20025;-94
2021/11/01 05:13:27;;;;;;;13.45;3.22;;;9.00;99.90;;;;;;5042314;28;20526;-94
2021/11/01 05:16:08;;;;;;;15.50;3.20;;;9.00;99.90;;;;;;5058001;28;20021;-96
2021/11/01 05:22:08;;;;;;;12.32;2.47;;;9.10;99.90;;;;;;5075970;28;20043;-96
2021/11/01 05:24:47;;;;;;;9.30;2.15;;;9.10;99.90;;;;;;5057538;28;20039;-94
2021/11/01 05:29:50;;;;;;;10.25;2.05;;;9.00;99.90;;;;;;5058764;28;20032;-94
2021/11/01 05:32:24;;;;;;;11.85;2.38;;;9.00;99.90;;;;;;5057878;28;20150;-94
2021/11/01 05:34:50;;;;;;;6.72;1.90;;;9.00;99.90;;;;;;5057918;28;20034;-93
2021/11/01 05:37:29;;;;;;;15.75;2.33;;;9.00;99.90;;;;;;5058091;28;20012;-94
2021/11/01 05:40:03;;;;;;;15.30;2.47;;;9.00;99.90;;;;;;5057562;28;20089;-94
2021/11/01 05:42:33;;;;;;;10.35;2.53;;;9.00;99.90;;;;;;5057410;28;20039;-95
2021/11/01 05:45:00;;;;;;;9.13;2.03;;;9.00;99.90;;;;;;5057712;28;20020;-94
2021/11/01 05:47:27;;;;;;;13.30;2.30;;;9.00;99.90;;;;;;5041020;28;20067;-96
2021/11/01 05:50:08;;;;;;;11.95;3.03;;;9.00;99.90;;;;;;5075265;28;20020;-94
2021/11/01 05:52:43;;;;;;;9.13;2.00;;;8.90;99.90;;;;;;5062743;28;20083;-94
2021/11/01 05:55:24;;;;;;;7.20;1.55;;;8.90;99.90;;;;;;5074167;28;20464;-94
2021/11/01 06:01:09;;;;;;;4.45;1.60;;;8.90;99.90;;;;;;5075205;28;20131;-96
2021/11/01 06:03:44;;;;;;;11.93;2.10;;;8.90;99.90;;;;;;5073431;28;20404;-95
2021/11/01 06:09:20;;;;;;;10.75;2.95;;;8.90;99.90;;;;;;5074274;28;20036;-94
2021/11/01 06:15:47;;;;;;;10.20;1.60;;;8.90;99.90;;;;;;5075217;28;20101;-94
2021/11/01 06:18:37;;;;;;;7.18;2.17;;;8.90;99.90;;;;;;5074640;28;20044;-96
2021/11/01 06:21:14;;;;;;;11.73;2.25;;;8.80;99.90;;;;;;5073016;28;20398;-95
2021/11/01 06:23:45;;;;;;;8.07;1.80;;;8.80;99.90;;;;;;5073473;28;20466;-94
2021/11/01 06:26:14;;;;;;;8.25;1.85;;;8.90;99.90;;;;;;5057695;28;20067;-94
2021/11/01 06:28:56;;;;;;;7.32;2.00;;;8.90;99.90;;;;;;5073353;28;20033;-94
2021/11/01 06:31:56;;;;;;;10.75;1.92;;;8.90;99.90;;;;;;5073495;28;20124;-96
2021/11/01 06:34:34;;;;;;;7.70;1.98;;;9.00;99.90;;;;;;5066682;28;20025;-93
2021/11/01 06:40:31;;;;;;;12.85;2.35;;;9.10;99.90;;;;;;5074165;28;20044;-94
2021/11/01 06:57:14;;;;;;;9.85;2.28;;;9.50;99.90;;;;;;5056966;28;20072;-95
2021/11/01 07:14:18;;;;;;;7.90;2.05;;;9.50;99.90;;;;;;5072374;28;20082;-95
2021/11/01 07:17:15;;;;;;;12.90;2.20;;;9.50;99.90;;;;;;5054494;28;20117;-95
2021/11/01 07:20:18;;;;;;;12.65;1.85;;;9.50;99.90;;;;;;5052027;28;20075;-95
2021/11/01 08:48:57;;;;;;;9.88;2.17;;;10.90;99.90;;;;;;5075026;28;20043;-94
2021/11/01 09:03:16;;;;;;;10.98;2.42;;;11.60;99.90;;;;;;5060004;28;20133;-94
2021/11/01 09:05:56;;;;;;;10.52;2.10;;;11.60;99.90;;;;;;5072207;28;20044;-95
2021/11/01 09:27:52;;;;;;;6.10;1.98;;;12.40;99.90;;;;;;5074495;28;20070;-93
2021/11/01 09:30:37;;;;;;;12.88;2.30;;;12.60;99.90;;;;;;5056509;28;20029;-92
2021/11/01 09:43:54;;;;;;;7.55;1.75;;;12.70;99.90;;;;;;5068303;28;20093;-91
2021/11/01 09:46:25;;;;;;;6.43;1.95;;;12.70;99.90;;;;;;5039756;28;20047;-91
2021/11/01 09:49:14;;;;;;;6.53;1.90;;;13.60;99.90;;;;;;5056725;28;20472;-90
2021/11/01 09:51:46;;;;;;;9.27;1.48;;;15.00;99.90;;;;;;5041235;28;20025;-90
2021/11/01 09:54:20;;;;;;;4.88;1.45;;;15.80;99.90;;;;;;5067960;28;20055;-92
2021/11/01 09:57:04;;;;;;;5.78;2.03;;;16.20;99.90;;;;;;5056568;28;20033;-90
2021/11/01 09:59:38;;;;;;;5.10;0.90;;;16.50;99.90;;;;;;5056154;28;20071;-90
2021/11/01 10:02:10;;;;;;;6.53;1.50;;;16.10;99.90;;;;;;5056362;28;20035;-91
2021/11/01 10:04:41;;;;;;;6.07;1.70;;;15.60;99.90;;;;;;5049484;28;20032;-91
2021/11/01 10:07:34;;;;;;;6.15;1.40;;;15.30;99.90;;;;;;5071990;28;20032;-93
2021/11/01 10:10:11;;;;;;;6.65;1.40;;;15.80;99.90;;;;;;5073130;28;20017;-91
2021/11/01 10:12:42;;;;;;;5.18;1.20;;;16.70;99.90;;;;;;5071960;28;20119;-90
2021/11/01 10:18:26;;;;;;;5.72;1.40;;;17.90;99.90;;;;;;5009731;28;20403;-90
2021/11/01 10:20:59;;;;;;;7.10;1.80;;;18.00;99.90;;;;;;4993866;28;20133;-90
2021/11/01 10:23:32;;;;;;;;;;;18.20;99.90;;;;;;5032644;28;20040;-90
2021/11/01 10:26:06;;;;;;;6.28;1.52;;;17.90;99.90;;;;;;5072106;28;19916;-90
2021/11/01 10:28:31;;;;;;;;;;;18.00;99.90;;;;;;5070479;28;20032;-90
2021/11/01 10:31:27;;;;;;;6.13;1.48;;;18.30;99.90;;;;;;5072078;28;20322;-92
2021/11/01 10:34:08;;;;;;;7.35;1.63;;;18.70;99.90;;;;;;5064797;28;20035;-90
2021/11/01 10:36:40;;;;;;;3.90;1.02;;;19.20;99.90;;;;;;5071852;28;20189;-90
2021/11/01 10:39:21;;;;;;;6.63;1.42;;;19.70;99.90;;;;;;5071713;28;20028;-88
2021/11/01 11:12:19;;;;;;;4.20;1.48;;;18.50;99.90;;;;;;5071420;28;20094;-87
2021/11/01 11:14:57;;;;;;;5.10;1.27;;;18.40;99.90;;;;;;5041466;28;20071;-88
2021/11/01 11:20:44;;;;;;;4.75;1.00;;;19.50;99.90;;;;;;5010926;28;20044;-87
2021/11/01 11:50:40;;;;;;;4.30;0.88;;;19.80;99.90;;;;;;5077202;28;20190;-88
2021/11/01 11:53:24;;;;;;;5.97;1.00;;;20.00;99.90;;;;;;5076783;28;20082;-88
2021/11/01 11:56:12;;;;;;;6.13;1.10;;;20.20;99.90;;;;;;5077337;28;20094;-87
2021/11/01 11:58:41;;;;;;;3.45;1.02;;;20.20;99.90;;;;;;5059446;28;20028;-87
2021/11/01 12:01:27;;;;;;;4.32;1.02;;;20.30;99.90;;;;;;5059129;28;20041;-87
2021/11/01 12:04:00;;;;;;;4.43;1.08;;;19.30;99.90;;;;;;5058675;28;20537;-87
2021/11/01 12:06:55;;;;;;;4.78;1.40;;;18.20;99.90;;;;;;5075719;28;20021;-88
2021/11/01 12:10:01;;;;;;;5.43;1.17;;;17.80;99.90;;;;;;5073132;28;20050;-88
2021/11/01 12:17:59;;;;;;;4.65;1.08;;;18.60;99.90;;;;;;5076112;28;20020;-88
2021/11/01 12:20:26;;;;;;;5.53;1.20;;;19.20;99.90;;;;;;5059089;28;20044;-88
2021/11/01 12:23:03;;;;;;;4.45;1.08;;;19.50;99.90;;;;;;5038733;28;20200;-87
2021/11/01 12:25:39;;;;;;;5.13;0.93;;;19.50;99.90;;;;;;5049376;28;20028;-88
2021/11/01 12:28:12;;;;;;;3.55;1.08;;;20.00;99.90;;;;;;5055447;28;20365;-88
2021/11/01 12:30:42;;;;;;;5.72;1.00;;;20.20;99.90;;;;;;5057338;28;20078;-86
2021/11/01 12:33:09;;;;;;;5.97;1.02;;;19.60;99.90;;;;;;5056906;28;20037;-87
2021/11/01 12:35:59;;;;;;;3.70;0.90;;;18.90;99.90;;;;;;5056325;28;20111;-87
2021/11/01 12:38:48;;;;;;;6.70;1.48;;;19.00;99.90;;;;;;5056616;28;20364;-86
2021/11/01 12:42:13;;;;;;;4.78;1.15;;;19.30;99.90;;;;;;5045728;28;20080;-88
2021/11/01 12:47:36;;;;;;;3.90;0.93;;;19.60;99.90;;;;;;5076403;28;20028;-88
2021/11/01 12:57:45;;;;;;;2.50;0.88;;;17.00;99.90;;;;;;5026979;28;20111;-87
2021/11/01 13:00:13;;;;;;;3.92;1.25;;;16.50;99.90;;;;;;5047846;28;20179;-88
2021/11/01 13:02:44;;;;;;;4.00;1.00;;;16.00;99.90;;;;;;5034447;28;20083;-88
2021/11/01 13:05:24;;;;;;;6.40;1.10;;;15.70;99.90;;;;;;5037091;28;20029;-88
2021/11/01 13:08:03;;;;;;;3.38;0.80;;;15.50;99.90;;;;;;5037650;28;20036;-87
2021/11/01 13:19:14;;;;;;;3.22;1.00;;;18.10;99.90;;;;;;5011916;28;20040;-88
2021/11/01 13:24:24;;;;;;;2.92;0.68;;;18.20;99.90;;;;;;5044837;28;20052;-88
2021/11/01 13:38:07;;;;;;;3.92;0.90;;;16.90;99.90;;;;;;5048654;28;20500;-88
2021/11/01 13:40:35;;;;;;;10.20;1.70;;;16.60;99.90;;;;;;5029940;28;20029;-89
2021/11/01 13:43:03;;;;;;;6.75;1.38;;;16.20;99.90;;;;;;5010542;28;20563;-87
2021/11/01 13:45:30;;;;;;;4.38;1.15;;;16.00;99.90;;;;;;5028283;28;20396;-88
2021/11/01 13:48:02;;;;;;;4.30;0.95;;;15.90;99.90;;;;;;5001688;28;20037;-86
2021/11/01 13:50:44;;;;;;;4.10;1.02;;;15.70;99.90;;;;;;5029218;28;20489;-87
2021/11/01 13:53:16;;;;;;;6.88;1.45;;;15.60;99.90;;;;;;5038569;28;20048;-87
2021/11/01 13:55:51;;;;;;;3.30;0.98;;;15.40;99.90;;;;;;5065917;28;20066;-87
2021/11/01 14:12:10;;;;;;;4.90;1.08;;;14.80;99.90;;;;;;5065686;28;20659;-88
2021/11/01 14:20:03;;;;;;;3.95;1.25;;;14.40;99.90;;;;;;5071386;28;20352;-87
2021/11/01 14:30:56;;;;;;;3.17;1.20;;;14.20;99.90;;;;;;5066548;28;20036;-89
2021/11/01 15:21:33;;;;;;;2.55;0.73;;;13.20;99.90;;;;;;5054271;28;20033;-87
2021/11/01 15:24:23;;;;;;;4.68;1.00;;;13.10;99.90;;;;;;5072380;28;20126;-88
2021/11/01 15:35:12;;;;;;;3.42;0.90;;;12.80;99.90;;;;;;5073519;28;20033;-87
2021/11/01 16:18:36;;;;;;;30.33;17.15;;;12.40;99.90;;;;;;5074136;28;20033;-87
2021/11/01 16:21:02;;;;;;;16.38;8.38;;;12.40;99.90;;;;;;5072906;28;20066;-86
2021/11/01 16:23:37;;;;;;;11.73;5.05;;;12.40;99.90;;;;;;5073150;28;20054;-87
2021/11/01 16:26:29;;;;;;;6.65;3.45;;;12.40;99.90;;;;;;5057795;28;20025;-87
2021/11/01 16:31:46;;;;;;;8.32;3.25;;;12.30;99.90;;;;;;5073645;28;20536;-88
2021/11/01 16:34:34;;;;;;;8.60;2.75;;;12.30;99.90;;;;;;5072873;28;20068;-87
2021/11/01 16:39:46;;;;;;;6.47;2.65;;;12.10;99.90;;;;;;5073867;28;20468;-87
2021/11/01 16:42:12;;;;;;;6.65;2.28;;;12.10;99.90;;;;;;5072182;28;20059;-87
2021/11/01 16:44:42;;;;;;;6.20;2.15;;;12.10;99.90;;;;;;5072695;28;20082;-88
2021/11/01 16:47:07;;;;;;;5.88;1.80;;;12.10;99.90;;;;;;5056932;28;20033;-87
2021/11/01 16:49:34;;;;;;;7.20;1.70;;;12.00;99.90;;;;;;5072017;28;20139;-87
2021/11/01 16:52:14;;;;;;;7.32;2.15;;;12.10;99.90;;;;;;5073238;28;20115;-87
2021/11/01 16:54:54;;;;;;;5.68;1.83;;;12.10;99.90;;;;;;5056522;28;20056;-87
2021/11/01 16:57:30;;;;;;;5.60;1.50;;;12.10;99.90;;;;;;5068775;28;20024;-87
2021/11/01 17:03:05;;;;;;;4.72;1.25;;;12.00;99.90;;;;;;5065558;28;20036;-88
2021/11/01 17:08:56;;;;;;;2.58;1.13;;;11.10;99.90;;;;;;5072008;28;20396;-89
2021/11/01 17:21:41;;;;;;;2.08;0.60;;;10.20;99.90;;;;;;5073682;28;20551;-93
2021/11/01 18:39:21;;;;;;;3.03;1.10;;;9.70;99.90;;;;;;5061494;28;20029;-92
2021/11/01 18:53:10;;;;;;;3.33;1.08;;;9.60;99.90;;;;;;5057095;28;20102;-92
2021/11/01 18:55:37;;;;;;;2.28;1.13;;;9.50;99.90;;;;;;5044206;28;20124;-92
2021/11/01 18:58:06;;;;;;;3.45;1.25;;;9.50;99.90;;;;;;5051017;28;20029;-92
2021/11/01 19:00:42;;;;;;;2.20;1.10;;;9.40;99.90;;;;;;5023298;28;20028;-92
2021/11/01 19:03:17;;;;;;;2.47;1.15;;;9.30;99.90;;;;;;5038202;28;20094;-92
2021/11/01 19:06:21;;;;;;;3.75;1.42;;;9.30;99.90;;;;;;5033776;28;20049;-91
2021/11/01 20:05:23;;;;;;;3.83;1.98;;;8.60;99.90;;;;;;5068776;28;20039;-92
2021/11/01 20:08:29;;;;;;;3.10;1.92;;;8.60;99.90;;;;;;5042745;28;20037;-92
2021/11/01 20:11:23;;;;;;;3.90;2.22;;;8.60;99.90;;;;;;5068634;28;20041;-92
2021/11/01 21:25:14;;;;;;;3.45;1.80;;;8.20;99.90;;;;;;4965223;28;20082;-95
2021/11/01 21:32:21;;;;;;;;;;;;;;;;;;;;;
2021/11/01 21:35:15;;;;;;;3.10;1.90;;;8.10;99.90;;;;;;4811681;29;20129;-96
2021/11/01 22:20:04;;;;;;;3.17;1.83;;;8.00;99.90;;;;;;4946743;28;20046;-94
2021/11/01 22:26:10;;;;;;;4.15;1.85;;;8.00;99.90;;;;;;4952972;28;20042;-95
2021/11/01 22:48:31;;;;;;;4.72;2.70;;;7.90;99.90;;;;;;5040951;28;20120;-95
2021/11/01 22:58:43;;;;;;;;;;;;;;;;;;;;;
2021/11/01 23:33:37;;;;;;;4.05;1.95;;;7.40;99.90;;;;;;4958046;28;20034;-94
2021/11/01 23:36:21;;;;;;;3.55;2.20;;;7.40;99.90;;;;;;4965885;28;20041;-93
2021/11/01 23:39:02;;;;;;;3.95;2.38;;;7.40;99.90;;;;;;4960787;28;20039;-94
2021/11/01 23:41:49;;;;;;;4.53;2.33;;;7.40;99.90;;;;;;5009933;28;20055;-93
2021/11/01 23:44:37;;;;;;;;;;;;;;;;;;;;;
2021/11/01 23:47:15;;;;;;;4.32;2.67;;;7.40;99.90;;;;;;5067474;28;20023;-93
2021/11/01 23:49:48;;;;;;;3.78;2.40;;;7.40;99.90;;;;;;5051894;28;20044;-93
2021/11/01 23:53:19;;;;;;;4.40;2.70;;;7.40;99.90;;;;;;5051052;28;20037;-94
2021/11/01 23:56:46;;;;;;;;;;;;;;;;;;;;;
2021/11/01 23:59:47;;;;;;;4.40;2.85;;;7.20;99.90;;;;;;5054522;28;20063;-94
